Time;durP1;ratioP1;P1;durP2;ratioP2;P2;SDS_P1;SDS_P2;PMS_P1;PMS_P2;Temp;Humidity;BMP_temperature;BMP_pressure;BME280_temperature;BME280_humidity;BME280_pressure;Samples;Min_cycle;Max_cycle;Signal;HPM_P1;HPM_P2
2023/08/04 00:00:20;;;;;;;0.30;0.30;;;15.60;99.90;;;;;;5100882;27;20050;-69
2023/08/04 00:02:46;;;;;;;0.32;0.32;;;15.70;99.90;;;;;;5102835;27;20030;-70
2023/08/04 00:05:11;;;;;;;7.38;1.90;;;15.60;99.90;;;;;;5106144;27;20039;-72
2023/08/04 00:07:37;;;;;;;0.22;0.22;;;15.60;99.90;;;;;;5102145;27;20161;-71
2023/08/04 00:10:04;;;;;;;0.10;0.10;;;15.70;99.90;;;;;;5127385;27;20152;-69
2023/08/04 00:12:30;;;;;;;0.10;0.10;;;15.60;99.90;;;;;;5103106;27;20123;-70
2023/08/04 00:14:56;;;;;;;0.45;0.30;;;15.60;99.90;;;;;;5120599;27;20040;-70
2023/08/04 00:17:22;;;;;;;0.20;0.20;;;15.70;99.90;;;;;;5106812;27;20046;-71
2023/08/04 00:19:48;;;;;;;0.80;0.80;;;15.60;99.90;;;;;;5103221;27;20036;-70
2023/08/04 00:22:13;;;;;;;0.35;0.10;;;15.60;99.90;;;;;;5104748;28;20051;-70
2023/08/04 00:24:39;;;;;;;0.15;0.15;;;15.60;99.90;;;;;;5146344;27;20039;-70
2023/08/04 00:27:05;;;;;;;0.30;0.30;;;15.50;99.90;;;;;;5107723;27;20381;-70
2023/08/04 00:29:31;;;;;;;0.10;0.10;;;15.60;99.90;;;;;;5102975;27;20039;-70
2023/08/04 00:31:56;;;;;;;0.10;0.10;;;15.50;99.90;;;;;;5098457;27;20061;-70
2023/08/04 00:34:22;;;;;;;0.22;0.15;;;15.50;99.90;;;;;;5094617;27;20054;-70
2023/08/04 00:36:48;;;;;;;0.22;0.10;;;15.60;99.90;;;;;;5105203;28;20031;-70
2023/08/04 00:39:14;;;;;;;0.65;0.40;;;15.50;99.90;;;;;;5105094;27;20054;-70
2023/08/04 00:41:40;;;;;;;0.10;0.10;;;15.50;99.90;;;;;;5100204;27;20039;-70
2023/08/04 00:44:06;;;;;;;0.63;0.47;;;15.50;99.90;;;;;;5103796;27;20035;-71
2023/08/04 00:46:32;;;;;;;0.10;0.10;;;15.40;99.90;;;;;;5100512;27;20406;-71
2023/08/04 00:48:59;;;;;;;0.20;0.20;;;15.30;99.90;;;;;;5100741;27;20465;-70
2023/08/04 00:51:25;;;;;;;0.20;0.20;;;15.30;99.90;;;;;;5114376;27;20043;-71
2023/08/04 00:53:52;;;;;;;0.05;0.05;;;15.30;99.90;;;;;;5087110;27;20059;-71
2023/08/04 00:56:18;;;;;;;0.20;0.20;;;15.20;99.90;;;;;;5089133;27;20039;-70
2023/08/04 00:58:44;;;;;;;1.48;0.30;;;15.20;99.90;;;;;;5098278;27;20035;-71
2023/08/04 01:01:09;;;;;;;0.10;0.10;;;15.20;99.90;;;;;;5103437;28;20509;-70
2023/08/04 01:03:37;;;;;;;0.10;0.10;;;15.10;99.90;;;;;;5101612;28;20032;-71
2023/08/04 01:06:51;;;;;;;0.20;0.20;;;15.10;99.90;;;;;;5102254;28;20398;-70
2023/08/04 01:09:38;;;;;;;0.55;0.40;;;15.00;99.90;;;;;;5066858;28;20058;-71
2023/08/04 01:12:12;;;;;;;0.10;0.10;;;15.00;99.90;;;;;;5101554;28;20055;-71
2023/08/04 01:14:41;;;;;;;0.10;0.10;;;14.90;99.90;;;;;;5118767;28;20074;-72
2023/08/04 01:17:27;;;;;;;0.20;0.20;;;14.90;99.90;;;;;;5134065;27;20043;-70
2023/08/04 01:19:53;;;;;;;0.77;0.77;;;14.80;99.90;;;;;;5103090;28;20043;-70
2023/08/04 01:22:20;;;;;;;0.32;0.20;;;14.90;99.90;;;;;;5105538;28;20096;-70
2023/08/04 01:24:45;;;;;;;0.10;0.10;;;14.80;99.90;;;;;;5101868;28;20043;-71
2023/08/04 01:27:14;;;;;;;0.30;0.20;;;14.80;99.90;;;;;;5098388;28;20117;-70
2023/08/04 01:29:44;;;;;;;0.35;0.20;;;14.80;99.90;;;;;;5103809;28;20046;-70
2023/08/04 01:32:10;;;;;;;0.30;0.30;;;14.90;99.90;;;;;;5104598;28;20039;-70
2023/08/04 01:34:36;;;;;;;0.30;0.15;;;14.90;99.90;;;;;;5112068;27;20367;-69
2023/08/04 01:37:02;;;;;;;5.63;0.45;;;14.90;99.90;;;;;;5118990;27;20404;-71
2023/08/04 01:39:27;;;;;;;0.50;0.50;;;14.90;99.90;;;;;;5101180;28;20127;-69
2023/08/04 01:41:53;;;;;;;0.22;0.10;;;14.90;99.90;;;;;;5106962;27;20039;-70
2023/08/04 01:44:19;;;;;;;0.03;0.03;;;14.80;99.90;;;;;;5112794;27;20132;-72
2023/08/04 01:46:44;;;;;;;0.40;0.40;;;14.90;99.90;;;;;;5111540;27;20553;-71
2023/08/04 01:49:10;;;;;;;0.10;0.10;;;14.80;99.90;;;;;;5110913;27;20039;-71
2023/08/04 01:51:36;;;;;;;0.10;0.10;;;14.80;99.90;;;;;;5105134;27;20117;-71
2023/08/04 01:54:02;;;;;;;0.43;0.20;;;14.80;99.90;;;;;;5112097;27;20438;-70
2023/08/04 01:56:27;;;;;;;1.45;0.85;;;14.70;99.90;;;;;;5104136;27;20548;-72
2023/08/04 01:58:53;;;;;;;0.20;0.20;;;14.70;99.90;;;;;;5104983;27;20119;-72
2023/08/04 02:01:23;;;;;;;0.10;0.10;;;14.70;99.90;;;;;;5107591;27;20126;-71
2023/08/04 02:03:49;;;;;;;0.15;0.15;;;14.70;99.90;;;;;;5108667;27;20042;-71
2023/08/04 02:06:15;;;;;;;1.00;0.20;;;14.70;99.90;;;;;;5114494;27;20039;-72
2023/08/04 02:08:41;;;;;;;0.15;0.15;;;14.70;99.90;;;;;;5102954;28;20063;-71
2023/08/04 02:11:07;;;;;;;0.15;0.15;;;14.70;99.90;;;;;;5112167;27;20482;-70
2023/08/04 02:13:33;;;;;;;0.80;0.80;;;14.70;99.90;;;;;;5106074;27;20483;-69
2023/08/04 02:15:58;;;;;;;0.00;0.00;;;14.70;99.90;;;;;;5100476;27;20123;-69
2023/08/04 02:18:24;;;;;;;0.10;0.10;;;14.70;99.90;;;;;;5122568;27;20102;-70
2023/08/04 02:20:49;;;;;;;0.10;0.10;;;14.70;99.90;;;;;;5107147;27;20118;-71
2023/08/04 02:23:15;;;;;;;0.10;0.10;;;14.70;99.90;;;;;;5105297;28;20039;-71
2023/08/04 02:25:41;;;;;;;0.75;0.20;;;14.70;99.90;;;;;;5132113;27;20047;-71
2023/08/04 02:28:07;;;;;;;0.10;0.10;;;14.70;99.90;;;;;;5132579;27;20038;-69
2023/08/04 02:30:33;;;;;;;0.08;0.08;;;14.70;99.90;;;;;;5106809;27;20043;-71
2023/08/04 02:32:58;;;;;;;0.10;0.10;;;14.70;99.90;;;;;;5107721;27;20046;-72
2023/08/04 02:35:24;;;;;;;0.30;0.17;;;14.80;99.90;;;;;;5094714;27;20074;-70
2023/08/04 02:37:50;;;;;;;0.20;0.13;;;14.80;99.90;;;;;;5122656;27;20393;-71
2023/08/04 02:40:15;;;;;;;0.00;0.00;;;14.80;99.90;;;;;;5105753;27;20400;-70
2023/08/04 02:42:41;;;;;;;0.52;0.20;;;14.80;99.90;;;;;;5138322;27;20163;-70
2023/08/04 02:45:07;;;;;;;0.30;0.20;;;14.80;99.90;;;;;;5102891;27;20042;-68
2023/08/04 02:47:33;;;;;;;0.10;0.10;;;14.80;99.90;;;;;;5102443;27;20035;-69
2023/08/04 02:49:58;;;;;;;0.08;0.08;;;14.80;99.90;;;;;;5134785;27;20500;-69
2023/08/04 02:52:24;;;;;;;0.00;0.00;;;14.80;99.90;;;;;;5105303;27;20166;-69
2023/08/04 02:54:55;;;;;;;0.20;0.17;;;14.80;99.90;;;;;;5101770;27;20046;-68
2023/08/04 02:57:20;;;;;;;0.40;0.40;;;14.80;99.90;;;;;;5110597;27;20454;-70
2023/08/04 02:59:46;;;;;;;0.00;0.00;;;14.80;99.90;;;;;;5115573;27;20027;-70
2023/08/04 03:02:11;;;;;;;0.00;0.00;;;14.80;99.90;;;;;;5118330;27;20035;-71
2023/08/04 03:04:39;;;;;;;0.20;0.20;;;14.80;99.90;;;;;;5119079;27;20133;-69
2023/08/04 03:07:05;;;;;;;1.45;0.98;;;14.80;99.90;;;;;;5103369;27;20112;-70
2023/08/04 03:09:30;;;;;;;0.10;0.10;;;14.80;99.90;;;;;;5103405;27;20486;-68
2023/08/04 03:11:56;;;;;;;0.20;0.20;;;14.80;99.90;;;;;;5102129;27;20038;-70
2023/08/04 03:14:22;;;;;;;0.98;0.43;;;14.80;99.90;;;;;;5116373;27;20391;-69
2023/08/04 03:16:49;;;;;;;0.45;0.10;;;14.80;99.90;;;;;;5105420;27;20043;-68
2023/08/04 03:19:16;;;;;;;2.28;0.95;;;14.80;99.90;;;;;;5103272;27;20096;-69
2023/08/04 03:21:42;;;;;;;0.43;0.43;;;14.70;99.90;;;;;;5101668;28;20101;-67
2023/08/04 03:24:07;;;;;;;0.08;0.08;;;14.80;99.90;;;;;;5109107;27;20039;-69
2023/08/04 03:26:33;;;;;;;0.30;0.10;;;14.70;99.90;;;;;;5107957;27;20065;-69
2023/08/04 03:28:59;;;;;;;0.10;0.10;;;14.80;99.90;;;;;;5123231;27;20043;-69
2023/08/04 03:31:24;;;;;;;0.10;0.10;;;14.80;99.90;;;;;;5095102;27;20074;-69
2023/08/04 03:33:50;;;;;;;0.25;0.15;;;14.80;99.90;;;;;;5115628;27;20071;-69
2023/08/04 03:36:15;;;;;;;0.10;0.10;;;14.90;99.90;;;;;;5137035;27;20067;-71
2023/08/04 03:38:41;;;;;;;0.10;0.10;;;14.90;99.90;;;;;;5108096;27;20029;-70
2023/08/04 03:41:07;;;;;;;0.20;0.10;;;14.90;99.90;;;;;;5102535;27;20047;-71
2023/08/04 03:43:32;;;;;;;0.00;0.00;;;14.90;99.90;;;;;;5134820;27;20058;-70
2023/08/04 03:45:58;;;;;;;0.10;0.10;;;14.90;99.90;;;;;;5100816;28;20494;-71
2023/08/04 03:48:23;;;;;;;0.10;0.10;;;14.90;99.90;;;;;;5119806;27;20036;-71
2023/08/04 03:50:49;;;;;;;0.20;0.20;;;14.90;99.90;;;;;;5106726;27;20389;-69
2023/08/04 03:53:14;;;;;;;0.00;0.00;;;15.00;99.90;;;;;;5107296;27;20134;-69
2023/08/04 03:55:40;;;;;;;0.28;0.25;;;15.00;99.90;;;;;;5106342;27;20035;-69
2023/08/04 03:58:06;;;;;;;0.03;0.03;;;15.00;99.90;;;;;;5101940;27;20036;-68
2023/08/04 04:00:31;;;;;;;0.10;0.10;;;15.00;99.90;;;;;;5118164;27;20032;-69
2023/08/04 04:02:59;;;;;;;0.10;0.10;;;15.00;99.90;;;;;;5102551;27;20121;-71
2023/08/04 04:05:24;;;;;;;0.10;0.10;;;15.00;99.90;;;;;;5102475;27;20075;-70
2023/08/04 04:07:50;;;;;;;0.60;0.10;;;15.00;99.90;;;;;;5099649;27;20430;-69
2023/08/04 04:10:16;;;;;;;0.00;0.00;;;15.00;99.90;;;;;;5106701;27;20381;-68
2023/08/04 04:12:41;;;;;;;2.45;0.40;;;15.00;99.90;;;;;;5107294;27;20052;-69
2023/08/04 04:15:08;;;;;;;0.10;0.10;;;15.00;99.90;;;;;;5103807;27;20485;-69
2023/08/04 04:17:35;;;;;;;0.00;0.00;;;15.00;99.90;;;;;;5104563;27;20418;-69
2023/08/04 04:20:01;;;;;;;0.08;0.08;;;15.00;99.90;;;;;;5114342;27;20074;-70
2023/08/04 04:22:26;;;;;;;0.10;0.10;;;15.00;99.90;;;;;;5106165;27;20031;-69
2023/08/04 04:24:52;;;;;;;2.65;0.35;;;15.10;99.90;;;;;;5099730;28;20421;-69
2023/08/04 04:27:23;;;;;;;0.10;0.10;;;15.00;99.90;;;;;;5106038;27;20039;-70
2023/08/04 04:29:48;;;;;;;0.03;0.03;;;15.10;99.90;;;;;;5135461;27;20043;-70
2023/08/04 04:32:14;;;;;;;0.00;0.00;;;15.10;99.90;;;;;;5118390;27;20202;-69
2023/08/04 04:34:40;;;;;;;0.20;0.20;;;15.00;99.90;;;;;;5116190;27;20063;-68
2023/08/04 04:37:06;;;;;;;0.00;0.00;;;15.10;99.90;;;;;;5099978;27;20058;-68
2023/08/04 04:39:32;;;;;;;0.40;0.20;;;15.10;99.90;;;;;;5100246;27;20043;-69
2023/08/04 04:41:57;;;;;;;0.30;0.30;;;15.10;99.90;;;;;;5117783;27;20035;-70
2023/08/04 04:44:23;;;;;;;0.10;0.10;;;15.10;99.90;;;;;;5106968;27;20377;-71
2023/08/04 04:46:49;;;;;;;0.00;0.00;;;15.10;99.90;;;;;;5110246;27;20067;-72
2023/08/04 04:49:16;;;;;;;0.25;0.17;;;15.20;99.90;;;;;;5107712;27;20050;-72
2023/08/04 04:51:42;;;;;;;0.10;0.10;;;15.20;99.90;;;;;;5110375;28;20406;-72
2023/08/04 04:54:08;;;;;;;0.65;0.17;;;15.20;99.90;;;;;;5103332;27;20036;-70
2023/08/04 04:56:33;;;;;;;0.57;0.57;;;15.20;99.90;;;;;;5102806;27;20464;-71
2023/08/04 04:58:59;;;;;;;0.05;0.05;;;15.20;99.90;;;;;;5110142;27;20297;-71
2023/08/04 05:01:25;;;;;;;0.10;0.10;;;15.20;99.90;;;;;;5099725;28;20486;-71
2023/08/04 05:03:50;;;;;;;0.20;0.10;;;15.20;99.90;;;;;;5105879;27;20052;-70
2023/08/04 05:06:16;;;;;;;0.55;0.20;;;15.20;99.90;;;;;;5109389;27;20046;-71
2023/08/04 05:08:41;;;;;;;0.13;0.10;;;15.20;99.90;;;;;;5103029;28;20402;-71
2023/08/04 05:11:07;;;;;;;0.05;0.05;;;15.20;99.90;;;;;;5099344;28;20073;-71
2023/08/04 05:13:33;;;;;;;0.20;0.20;;;15.30;99.90;;;;;;5102591;28;20432;-70
2023/08/04 05:15:58;;;;;;;0.10;0.10;;;15.30;99.90;;;;;;5102678;28;20039;-71
2023/08/04 05:18:24;;;;;;;0.80;0.10;;;15.30;99.90;;;;;;5105740;28;20208;-70
2023/08/04 05:20:49;;;;;;;0.10;0.10;;;15.30;99.90;;;;;;5125907;28;20077;-70
2023/08/04 05:23:15;;;;;;;0.10;0.10;;;15.40;99.90;;;;;;5087536;28;20032;-70
2023/08/04 05:25:41;;;;;;;0.10;0.10;;;15.40;99.90;;;;;;5104942;28;20050;-70
2023/08/04 05:28:24;;;;;;;0.10;0.10;;;15.40;99.90;;;;;;5105430;28;20043;-70
2023/08/04 05:30:55;;;;;;;0.10;0.10;;;15.40;99.90;;;;;;5115486;27;20628;-71
2023/08/04 05:33:21;;;;;;;0.13;0.13;;;15.50;99.90;;;;;;5107601;28;20091;-71
2023/08/04 05:35:47;;;;;;;0.00;0.00;;;15.50;99.90;;;;;;5078682;28;20436;-71
2023/08/04 05:38:13;;;;;;;0.20;0.20;;;15.50;99.90;;;;;;5105494;28;20047;-70
2023/08/04 05:40:41;;;;;;;0.00;0.00;;;15.50;99.90;;;;;;5135773;27;20027;-71
2023/08/04 05:43:07;;;;;;;0.43;0.43;;;15.60;99.90;;;;;;5101940;28;20058;-69
2023/08/04 05:45:37;;;;;;;0.00;0.00;;;15.50;99.90;;;;;;5098640;28;20036;-70
2023/08/04 05:48:03;;;;;;;0.00;0.00;;;15.60;99.90;;;;;;5103269;28;20043;-70
2023/08/04 05:50:29;;;;;;;0.13;0.10;;;15.70;99.90;;;;;;5102235;28;20066;-70
2023/08/04 05:52:54;;;;;;;0.45;0.10;;;15.80;99.90;;;;;;5101772;28;20035;-70
2023/08/04 05:55:20;;;;;;;0.08;0.08;;;15.80;99.90;;;;;;5087825;28;20244;-70
2023/08/04 05:57:46;;;;;;;0.10;0.10;;;15.90;99.90;;;;;;5105171;28;20054;-70
2023/08/04 06:00:12;;;;;;;0.00;0.00;;;15.90;99.90;;;;;;5096325;28;20035;-69
2023/08/04 06:02:38;;;;;;;0.10;0.10;;;15.90;99.90;;;;;;5119944;27;20043;-71
2023/08/04 06:05:04;;;;;;;0.00;0.00;;;15.90;99.90;;;;;;5102412;28;20039;-70
2023/08/04 06:07:30;;;;;;;1.42;0.20;;;15.90;99.90;;;;;;5104377;28;20477;-70
2023/08/04 06:09:56;;;;;;;0.10;0.10;;;16.00;99.90;;;;;;5120384;27;20036;-68
2023/08/04 06:12:21;;;;;;;0.55;0.38;;;16.10;99.90;;;;;;5103686;28;20521;-68
2023/08/04 06:14:47;;;;;;;0.05;0.05;;;16.10;99.90;;;;;;5104705;28;20068;-68
2023/08/04 06:17:13;;;;;;;0.00;0.00;;;16.30;99.90;;;;;;5099399;28;20050;-68
2023/08/04 06:19:40;;;;;;;0.28;0.25;;;16.30;99.90;;;;;;5098583;27;20063;-67
2023/08/04 06:22:07;;;;;;;0.00;0.00;;;16.30;99.90;;;;;;5138305;27;20378;-67
2023/08/04 06:24:33;;;;;;;0.00;0.00;;;16.30;99.90;;;;;;5102189;27;20050;-68
2023/08/04 06:26:58;;;;;;;0.30;0.30;;;16.40;99.90;;;;;;5100336;27;20035;-68
2023/08/04 06:29:24;;;;;;;0.00;0.00;;;16.40;99.90;;;;;;5103443;27;20039;-68
2023/08/04 06:31:49;;;;;;;0.05;0.05;;;16.40;99.90;;;;;;5106216;27;20512;-69
2023/08/04 06:34:15;;;;;;;0.10;0.10;;;16.40;99.90;;;;;;5101061;27;20124;-68
2023/08/04 06:36:45;;;;;;;0.10;0.10;;;16.40;99.90;;;;;;5103658;27;20039;-69
2023/08/04 06:39:11;;;;;;;0.80;0.17;;;16.40;99.90;;;;;;5099748;27;20054;-68
2023/08/04 06:41:36;;;;;;;0.20;0.20;;;16.50;99.90;;;;;;5104205;27;20039;-68
2023/08/04 06:44:02;;;;;;;0.10;0.10;;;16.60;99.90;;;;;;5103747;27;20031;-68
2023/08/04 06:46:27;;;;;;;0.10;0.10;;;16.70;99.90;;;;;;5110192;27;20146;-69
2023/08/04 06:48:53;;;;;;;2.55;0.20;;;16.70;99.90;;;;;;5105347;27;20074;-68
2023/08/04 06:51:18;;;;;;;0.15;0.15;;;16.60;99.90;;;;;;5108744;27;20494;-67
2023/08/04 06:53:44;;;;;;;1.00;0.20;;;16.60;99.90;;;;;;5140749;27;20116;-67
2023/08/04 06:56:10;;;;;;;2.65;0.20;;;16.50;99.90;;;;;;5121653;27;20036;-67
2023/08/04 06:58:35;;;;;;;0.57;0.57;;;16.50;99.90;;;;;;5106976;27;20066;-67
2023/08/04 07:01:01;;;;;;;0.20;0.20;;;16.60;99.90;;;;;;5102982;27;20043;-67
2023/08/04 07:03:26;;;;;;;0.30;0.17;;;16.60;99.90;;;;;;5121227;27;20054;-68
2023/08/04 07:05:52;;;;;;;0.10;0.10;;;16.60;99.90;;;;;;5107099;27;20043;-68
2023/08/04 07:08:17;;;;;;;0.10;0.10;;;16.60;99.90;;;;;;5110942;27;20058;-69
2023/08/04 07:10:43;;;;;;;0.45;0.13;;;16.70;99.90;;;;;;5098974;27;20385;-67
2023/08/04 07:13:09;;;;;;;0.00;0.00;;;16.70;99.90;;;;;;5100731;27;20038;-68
2023/08/04 07:15:34;;;;;;;0.10;0.10;;;16.70;99.90;;;;;;5103977;27;20046;-71
2023/08/04 07:18:00;;;;;;;0.10;0.10;;;16.70;99.90;;;;;;5101466;27;20039;-68
2023/08/04 07:20:27;;;;;;;0.10;0.10;;;16.70;99.90;;;;;;5134604;27;20035;-68
2023/08/04 07:22:55;;;;;;;0.13;0.13;;;16.70;99.90;;;;;;5095807;27;20046;-67
2023/08/04 07:25:20;;;;;;;0.43;0.10;;;16.70;99.90;;;;;;5103453;27;20122;-68
2023/08/04 07:27:46;;;;;;;1.15;1.15;;;16.80;99.90;;;;;;5106551;27;20115;-67
2023/08/04 07:30:15;;;;;;;0.10;0.10;;;16.90;99.90;;;;;;5098318;27;20109;-69
2023/08/04 07:32:40;;;;;;;0.77;0.30;;;16.80;99.90;;;;;;5105992;27;20375;-68
2023/08/04 07:35:07;;;;;;;0.43;0.43;;;16.80;99.90;;;;;;5102140;27;20096;-69
2023/08/04 07:37:32;;;;;;;0.00;0.00;;;16.80;99.90;;;;;;5107850;27;20378;-70
2023/08/04 07:40:10;;;;;;;0.30;0.20;;;16.80;99.90;;;;;;5103474;27;20047;-70
2023/08/04 07:42:35;;;;;;;0.43;0.30;;;16.80;99.90;;;;;;5107181;27;20027;-69
2023/08/04 07:45:01;;;;;;;0.10;0.10;;;16.80;99.90;;;;;;5122345;27;20088;-68
2023/08/04 07:47:27;;;;;;;0.10;0.10;;;16.70;99.90;;;;;;5104262;27;20071;-71
2023/08/04 07:50:06;;;;;;;0.10;0.10;;;16.80;99.90;;;;;;5097464;27;20046;-70
2023/08/04 07:52:31;;;;;;;0.10;0.10;;;16.70;99.90;;;;;;5096727;27;20143;-68
2023/08/04 07:54:57;;;;;;;0.40;0.08;;;16.60;99.90;;;;;;5099101;27;20494;-69
2023/08/04 07:57:22;;;;;;;0.00;0.00;;;16.50;99.90;;;;;;5100340;27;20043;-69
2023/08/04 07:59:50;;;;;;;0.22;0.10;;;16.60;99.90;;;;;;5101109;27;20031;-68
2023/08/04 08:02:15;;;;;;;0.10;0.10;;;16.60;99.90;;;;;;5101021;27;20088;-67
2023/08/04 08:04:41;;;;;;;0.13;0.13;;;16.60;99.90;;;;;;5100273;27;20506;-69
2023/08/04 08:07:08;;;;;;;0.10;0.10;;;16.70;99.90;;;;;;5101845;27;20058;-66
2023/08/04 08:09:33;;;;;;;0.10;0.10;;;16.80;99.90;;;;;;5099246;27;20067;-67
2023/08/04 08:11:59;;;;;;;0.00;0.00;;;16.90;99.90;;;;;;5100147;27;20081;-67
2023/08/04 08:14:25;;;;;;;0.57;0.20;;;16.90;99.90;;;;;;5098454;27;20066;-68
2023/08/04 08:16:50;;;;;;;0.10;0.10;;;17.00;99.90;;;;;;5121832;27;20474;-67
2023/08/04 08:19:16;;;;;;;0.10;0.10;;;17.20;99.90;;;;;;5121377;27;20047;-68
2023/08/04 08:21:45;;;;;;;0.00;0.00;;;17.20;99.90;;;;;;5100780;27;20411;-69
2023/08/04 08:24:11;;;;;;;0.08;0.08;;;17.40;99.90;;;;;;5104898;27;20040;-68
2023/08/04 08:26:36;;;;;;;0.25;0.25;;;17.50;99.90;;;;;;5094819;28;20108;-69
2023/08/04 08:29:02;;;;;;;0.03;0.03;;;17.70;99.90;;;;;;5116952;27;20467;-68
2023/08/04 08:31:28;;;;;;;0.10;0.10;;;17.90;99.90;;;;;;5099921;27;20079;-70
2023/08/04 08:33:53;;;;;;;0.00;0.00;;;17.90;99.90;;;;;;5101747;27;20046;-70
2023/08/04 08:36:19;;;;;;;0.20;0.20;;;18.00;99.90;;;;;;5096909;27;20035;-68
2023/08/04 08:38:45;;;;;;;0.17;0.17;;;18.00;99.90;;;;;;5091149;27;20031;-69
2023/08/04 08:41:13;;;;;;;0.57;0.30;;;18.10;99.90;;;;;;5099208;27;20097;-69
2023/08/04 08:43:40;;;;;;;0.00;0.00;;;18.20;99.90;;;;;;5095540;27;20150;-69
2023/08/04 08:46:07;;;;;;;0.00;0.00;;;18.40;99.90;;;;;;5100995;27;20083;-69
2023/08/04 08:48:36;;;;;;;0.75;0.55;;;18.50;99.90;;;;;;5101917;27;20229;-69
2023/08/04 08:51:07;;;;;;;0.50;0.50;;;18.40;99.90;;;;;;5102797;27;20446;-69
2023/08/04 08:53:34;;;;;;;0.22;0.10;;;18.20;99.90;;;;;;5083494;27;20043;-68
2023/08/04 08:56:01;;;;;;;1.15;0.75;;;18.10;99.90;;;;;;5105132;27;20489;-70
2023/08/04 08:58:32;;;;;;;0.10;0.10;;;18.00;99.90;;;;;;5104907;27;20049;-70
2023/08/04 09:01:00;;;;;;;0.10;0.10;;;17.90;99.90;;;;;;5105715;27;20050;-69
2023/08/04 09:03:27;;;;;;;0.43;0.20;;;17.70;99.90;;;;;;5104689;27;20122;-71
2023/08/04 09:05:52;;;;;;;0.25;0.25;;;17.60;99.90;;;;;;5136834;27;20109;-69
2023/08/04 09:08:18;;;;;;;0.10;0.10;;;17.50;99.90;;;;;;5097501;28;20514;-69
2023/08/04 09:10:44;;;;;;;0.10;0.10;;;17.50;99.90;;;;;;5099666;28;20490;-69
2023/08/04 09:13:11;;;;;;;0.08;0.08;;;17.60;99.90;;;;;;5099123;28;21484;-68
2023/08/04 09:15:48;;;;;;;0.15;0.15;;;17.60;99.90;;;;;;5098641;28;20062;-69
2023/08/04 09:18:27;;;;;;;0.32;0.28;;;17.70;99.90;;;;;;5095917;28;20183;-70
2023/08/04 09:21:13;;;;;;;0.10;0.10;;;17.90;99.90;;;;;;5108399;28;20073;-69
2023/08/04 09:23:49;;;;;;;0.08;0.05;;;17.90;99.90;;;;;;5103189;28;20062;-69
2023/08/04 09:26:15;;;;;;;0.20;0.20;;;17.80;99.90;;;;;;5100515;28;21453;-68
2023/08/04 09:28:41;;;;;;;0.10;0.10;;;17.80;99.90;;;;;;5108933;28;20169;-69
2023/08/04 09:31:12;;;;;;;0.10;0.10;;;17.90;99.90;;;;;;5100209;28;20134;-68
2023/08/04 09:33:41;;;;;;;0.20;0.20;;;17.90;99.90;;;;;;5100801;28;20401;-68
2023/08/04 09:36:10;;;;;;;0.10;0.10;;;18.00;99.90;;;;;;5127669;27;20047;-69
2023/08/04 09:38:37;;;;;;;0.10;0.10;;;18.00;99.90;;;;;;5101766;28;20035;-67
2023/08/04 09:41:06;;;;;;;0.10;0.10;;;18.10;99.90;;;;;;5099415;28;20062;-67
2023/08/04 09:43:31;;;;;;;1.00;0.45;;;18.30;99.90;;;;;;5131407;27;20420;-69
2023/08/04 09:46:00;;;;;;;0.10;0.10;;;18.40;99.90;;;;;;5100014;28;20039;-69
2023/08/04 09:48:26;;;;;;;0.20;0.20;;;18.40;99.90;;;;;;5097239;28;20039;-70
2023/08/04 09:51:14;;;;;;;0.17;0.17;;;18.60;99.90;;;;;;5083110;28;20061;-69
2023/08/04 09:53:45;;;;;;;0.10;0.10;;;18.90;99.90;;;;;;5103329;27;20585;-68
2023/08/04 09:56:13;;;;;;;1.45;0.30;;;19.00;99.90;;;;;;5134683;27;20424;-68
2023/08/04 09:58:40;;;;;;;0.03;0.03;;;19.10;99.90;;;;;;5086261;27;20035;-68
2023/08/04 10:01:06;;;;;;;1.30;0.60;;;19.10;99.90;;;;;;5106744;27;20393;-71
2023/08/04 10:03:34;;;;;;;0.10;0.10;;;19.10;99.90;;;;;;5109840;27;20042;-74
2023/08/04 10:06:00;;;;;;;0.10;0.10;;;18.90;99.90;;;;;;5114669;27;20031;-71
2023/08/04 10:08:36;;;;;;;0.10;0.10;;;18.30;99.90;;;;;;5117251;27;20040;-70
2023/08/04 10:11:02;;;;;;;0.20;0.20;;;17.80;99.90;;;;;;5100420;27;20397;-70
2023/08/04 10:13:33;;;;;;;0.17;0.17;;;17.50;99.90;;;;;;5112926;27;20035;-70
2023/08/04 10:16:03;;;;;;;1.27;0.63;;;17.40;99.90;;;;;;5117726;27;20050;-71
2023/08/04 10:18:48;;;;;;;0.10;0.10;;;17.30;99.90;;;;;;5119693;27;20039;-69
2023/08/04 10:21:16;;;;;;;0.30;0.30;;;17.30;99.90;;;;;;5116109;27;20039;-70
2023/08/04 10:23:41;;;;;;;0.32;0.30;;;17.30;99.90;;;;;;5115984;27;20059;-70
2023/08/04 10:26:11;;;;;;;0.10;0.10;;;17.40;99.90;;;;;;5119058;27;20109;-69
2023/08/04 10:29:01;;;;;;;0.47;0.22;;;17.40;99.90;;;;;;5119164;27;20374;-69
2023/08/04 10:31:44;;;;;;;0.00;0.00;;;17.60;99.90;;;;;;5119263;27;20039;-68
2023/08/04 10:38:03;;;;;;;0.30;0.30;;;17.80;99.90;;;;;;5130050;27;20114;-68
2023/08/04 10:40:31;;;;;;;0.10;0.10;;;18.00;99.90;;;;;;5116440;27;20042;-69
2023/08/04 10:43:37;;;;;;;0.28;0.28;;;18.00;99.90;;;;;;5114801;27;20063;-70
2023/08/04 10:46:10;;;;;;;0.10;0.10;;;18.30;99.90;;;;;;5113815;27;20027;-67
2023/08/04 10:48:40;;;;;;;0.10;0.10;;;18.70;99.90;;;;;;5102055;27;20032;-72
2023/08/04 10:51:08;;;;;;;0.45;0.45;;;18.50;99.90;;;;;;5096733;27;20039;-72
2023/08/04 10:53:34;;;;;;;0.22;0.22;;;18.30;99.90;;;;;;5100292;27;20058;-72
2023/08/04 10:56:00;;;;;;;0.00;0.00;;;18.10;99.90;;;;;;5102689;27;20067;-74
2023/08/04 10:58:27;;;;;;;0.10;0.10;;;17.90;99.90;;;;;;5097603;27;20043;-73
2023/08/04 11:00:55;;;;;;;0.22;0.22;;;17.80;99.90;;;;;;5102386;27;20046;-74
2023/08/04 11:03:26;;;;;;;1.45;1.20;;;17.70;99.90;;;;;;5102912;27;20038;-75
2023/08/04 11:05:53;;;;;;;0.85;0.20;;;17.70;99.90;;;;;;5098246;28;20046;-77
2023/08/04 11:08:19;;;;;;;0.30;0.30;;;17.70;99.90;;;;;;5098288;27;22125;-77
2023/08/04 11:10:50;;;;;;;0.13;0.10;;;17.80;99.90;;;;;;5111009;27;20046;-74
2023/08/04 11:13:18;;;;;;;0.10;0.10;;;18.00;99.90;;;;;;5111202;27;20050;-73
2023/08/04 11:15:45;;;;;;;0.30;0.30;;;18.10;99.90;;;;;;5089945;27;20385;-76
2023/08/04 11:18:16;;;;;;;0.10;0.10;;;18.10;99.90;;;;;;5112101;27;20049;-75
2023/08/04 11:20:42;;;;;;;0.10;0.10;;;18.20;99.90;;;;;;5108998;27;20043;-76
2023/08/04 11:23:09;;;;;;;0.10;0.10;;;18.30;99.90;;;;;;5088416;27;20035;-75
2023/08/04 11:25:36;;;;;;;0.17;0.17;;;18.50;99.90;;;;;;5139625;27;20043;-74
2023/08/04 11:28:02;;;;;;;0.75;0.50;;;18.80;99.90;;;;;;5114211;27;20533;-76
2023/08/04 11:30:28;;;;;;;0.30;0.30;;;19.10;99.90;;;;;;5111714;27;20059;-75
2023/08/04 11:32:54;;;;;;;0.80;0.28;;;19.30;99.90;;;;;;5107295;27;20123;-76
2023/08/04 11:35:20;;;;;;;0.32;0.28;;;19.40;99.90;;;;;;5097578;27;20523;-74
2023/08/04 11:37:46;;;;;;;0.10;0.10;;;19.30;99.90;;;;;;5099102;27;20484;-75
2023/08/04 11:40:25;;;;;;;0.10;0.10;;;19.20;99.90;;;;;;5101483;27;20126;-72
2023/08/04 11:42:51;;;;;;;0.17;0.17;;;19.20;99.90;;;;;;5095725;27;20267;-74
2023/08/04 11:45:17;;;;;;;2.75;0.20;;;19.30;99.90;;;;;;5106036;27;20082;-76
2023/08/04 11:47:43;;;;;;;0.60;0.60;;;19.40;99.90;;;;;;5105367;27;20050;-72
2023/08/04 11:50:09;;;;;;;0.47;0.30;;;19.50;99.90;;;;;;5100496;27;20031;-74
2023/08/04 11:52:38;;;;;;;0.05;0.05;;;19.40;99.90;;;;;;5109678;27;20039;-73
2023/08/04 11:55:05;;;;;;;0.10;0.10;;;19.30;99.90;;;;;;5110955;27;20397;-74
2023/08/04 11:57:31;;;;;;;0.38;0.38;;;19.20;99.90;;;;;;5105776;27;20051;-74
2023/08/04 12:00:01;;;;;;;0.32;0.32;;;19.20;99.90;;;;;;5114523;27;20080;-72
2023/08/04 12:02:28;;;;;;;0.10;0.10;;;19.30;99.90;;;;;;5114079;27;20163;-73
2023/08/04 12:05:08;;;;;;;5.35;0.20;;;19.60;99.90;;;;;;5108608;27;20035;-70
2023/08/04 12:07:33;;;;;;;0.10;0.10;;;19.90;99.90;;;;;;5107424;27;20035;-71
2023/08/04 12:09:59;;;;;;;3.40;0.47;;;19.90;99.90;;;;;;5101655;27;20036;-67
2023/08/04 12:12:41;;;;;;;0.10;0.10;;;19.70;99.90;;;;;;5126948;27;20047;-71
2023/08/04 12:15:07;;;;;;;0.38;0.38;;;19.50;99.90;;;;;;5101178;27;20107;-69
2023/08/04 12:17:38;;;;;;;0.60;0.43;;;19.40;99.90;;;;;;5103311;28;20126;-75
2023/08/04 12:20:04;;;;;;;0.20;0.20;;;19.10;99.90;;;;;;5114599;27;20264;-74
2023/08/04 12:22:33;;;;;;;0.10;0.10;;;19.00;99.90;;;;;;5103850;27;20636;-73
2023/08/04 12:25:45;;;;;;;0.73;0.40;;;18.90;99.90;;;;;;5119660;27;20040;-72
2023/08/04 12:28:11;;;;;;;0.20;0.20;;;18.70;99.90;;;;;;5100922;27;20035;-74
2023/08/04 12:30:37;;;;;;;0.13;0.13;;;18.60;99.90;;;;;;5113972;27;20035;-74
2023/08/04 12:33:27;;;;;;;0.32;0.32;;;18.40;99.90;;;;;;5109728;27;20071;-71
2023/08/04 12:35:52;;;;;;;0.10;0.10;;;18.40;99.90;;;;;;5115115;27;20048;-75
2023/08/04 12:38:18;;;;;;;0.20;0.20;;;18.60;99.90;;;;;;5089548;27;20481;-71
2023/08/04 12:40:44;;;;;;;1.55;0.60;;;19.00;99.90;;;;;;5101480;28;20043;-72
2023/08/04 12:43:09;;;;;;;0.93;0.85;;;19.50;99.90;;;;;;5134403;27;20087;-71
2023/08/04 12:45:35;;;;;;;1.27;0.17;;;19.80;99.90;;;;;;5100723;27;20801;-75
2023/08/04 12:48:00;;;;;;;1.38;0.20;;;19.90;99.90;;;;;;5090327;27;20035;-75
2023/08/04 12:50:26;;;;;;;0.10;0.10;;;19.90;99.90;;;;;;5108808;27;20043;-74
2023/08/04 12:52:52;;;;;;;0.10;0.10;;;20.00;99.90;;;;;;5109452;27;20096;-72